Home > Products > Valid Products > TAF

000
FTUS43 KLSX 232300
TAFSUS
TAF
KSUS 232320Z 2400/2424 12008KT P6SM BKN150
     FM241500 15013G22KT P6SM SCT050 BKN150
     FM241800 16014G24KT 6SM -SHRA BKN040
     FM242200 16014G22KT 5SM -SHRA VCTS OVC035CB=



000
FTUS43 KLSX 232300
TAFUIN
TAF
KUIN 232320Z 2400/2424 13013KT P6SM BKN120
     FM240600 13013KT P6SM BKN150 WS017/17045KT
     FM241500 16015G25KT 6SM -SHRA VCTS BKN050CB
     FM242100 18012G21KT 5SM -TSRA OVC035CB=



000
FTUS43 KLSX 232300
TAFCOU
TAF
KCOU 232320Z 2400/2424 12012KT P6SM BKN150
     FM240600 14013KT P6SM BKN150 WS016/17045KT
     FM241500 16014G24KT 6SM -SHRA VCTS BKN050CB
     FM242000 18012KT 5SM -TSRA OVC035CB
     FM242200 27013KT P6SM OVC020=



000
FTUS43 KLSX 232300
TAFSTL
TAF
KSTL 232320Z 2400/2506 12012KT P6SM BKN150
     FM241500 15015G24KT P6SM SCT050 BKN150
     FM241800 16016G26KT 6SM -SHRA BKN040
     FM242200 16014G22KT 5SM -SHRA VCTS OVC035CB
     FM250200 27014G22KT P6SM OVC020=



000
FTUS43 KLSX 232000 AAA
TAFSTL
TAF AMD
KSTL 232051Z 2321/2424 11012KT P6SM BKN120
     FM241300 15015G24KT P6SM SCT050 SCT150
     FM241800 17017G27KT 6SM -SHRA VCTS BKN040CB=



000
FTUS43 KLSX 232000 AAB
TAFUIN
TAF AMD
KUIN 232047Z 2321/2418 13013KT P6SM BKN100
     FM240300 14014KT P6SM SCT150 WS020/18045KT
     FM241500 16015G25KT 6SM -SHRA VCTS BKN040CB=



000
FTUS43 KLSX 231900 AAA
TAFUIN
TAF AMD
KUIN 231946Z 2320/2418 13013KT P6SM BKN100
      TEMPO 2320/2321 -RA
     FM232100 12014G21KT P6SM BKN100
     FM240300 14014KT P6SM SCT150 WS020/18045KT
     FM241500 16015G25KT 6SM -SHRA VCTS BKN040CB=



000
FTUS43 KLSX 231700
TAFUIN
TAF
KUIN 231722Z 2318/2418 13013KT P6SM BKN100
     FM232100 12014G21KT P6SM BKN100
     FM240300 14014KT P6SM SCT150 WS020/18045KT
     FM241500 16015G25KT 6SM -SHRA VCTS BKN040CB=



000
FTUS43 KLSX 231700
TAFSTL
TAF
KSTL 231722Z 2318/2424 11012KT P6SM BKN120
     FM241300 15015G24KT P6SM SCT050 SCT150
     FM241800 17017G27KT 6SM -SHRA VCTS BKN040CB=



000
FTUS43 KLSX 231700
TAFSUS
TAF
KSUS 231722Z 2318/2418 11008KT P6SM BKN120
     FM241400 15013G22KT P6SM SCT050 SCT150=



000
FTUS43 KLSX 231700
TAFCOU
TAF
KCOU 231722Z 2318/2418 12012KT P6SM BKN100
     FM232100 13013G21KT P6SM BKN100
     FM240300 14013KT P6SM SCT150 WS020/18045KT
     FM241400 16014G24KT 6SM -SHRA VCTS BKN040CB=



000
FTUS43 KLSX 231600 AAA
TAFSUS
TAF AMD
KSUS 231647Z 2317/2412 11010KT P6SM SCT250
     FM231900 11009KT P6SM BKN120=



000
FTUS43 KLSX 231400 AAA
TAFSTL
TAF AMD
KSTL 231450Z 2315/2418 09009KT P6SM SCT250
     FM231900 11013KT P6SM BKN120
     FM241400 16014G22KT P6SM OVC100=



000
FTUS43 KLSX 231200 AAA
TAFUIN
TAF AMD
KUIN 231259Z 2313/2412 13013KT P6SM BKN100
     FM232100 12014G22KT P6SM BKN100=



000
FTUS43 KLSX 231100
TAFSUS
TAF
KSUS 231127Z 2312/2412 VRB04KT P6SM SCT250
     FM231900 11009KT P6SM BKN120=



000
FTUS43 KLSX 231100
TAFUIN
TAF
KUIN 231127Z 2312/2412 09008KT P6SM SCT120
     FM231500 13011KT P6SM BKN100
     FM232100 12014G22KT P6SM BKN100=



000
FTUS43 KLSX 231100
TAFSTL
TAF
KSTL 231127Z 2312/2418 08009KT P6SM SCT250
     FM231900 11013KT P6SM BKN120
     FM241400 16014G22KT P6SM OVC100=



000
FTUS43 KLSX 231100
TAFCOU
TAF
KCOU 231127Z 2312/2412 10007KT P6SM SCT250
     FM231500 13012KT P6SM BKN120
     FM232100 14014G22KT P6SM BKN120=



000
FTUS43 KLSX 230900 AAA
TAFSTL
TAF AMD
KSTL 230921Z 2309/2412 VRB04KT P6SM SCT250
     FM231400 13011KT P6SM BKN120=



000
FTUS43 KLSX 230500
TAFSTL
TAF
KSTL 230520Z 2306/2412 VRB04KT P6SM SCT250
     FM231400 13011KT P6SM BKN120=



000
FTUS43 KLSX 230500
TAFSUS
TAF
KSUS 230520Z 2306/2406 00000KT P6SM SCT250
     FM231400 12008KT P6SM BKN120=



000
FTUS43 KLSX 230500
TAFUIN
TAF
KUIN 230520Z 2306/2406 06005KT P6SM SCT150
     FM231500 13011KT P6SM BKN100
     FM232100 12014G21KT P6SM BKN150=



000
FTUS43 KLSX 230500
TAFCOU
TAF
KCOU 230520Z 2306/2406 07005KT P6SM SCT250
     FM231500 13012KT P6SM BKN120
     FM232100 14014G21KT P6SM BKN150=



000
FTUS43 KLSX 230200 AAA
TAFSTL
TAF AMD
KSTL 230255Z 2303/2406 VRB04KT P6SM SCT250
     FM231400 13010KT P6SM BKN120=



000
FTUS43 KLSX 222300
TAFCOU
TAF
KCOU 222320Z 2300/2324 02005KT P6SM SKC
     FM230700 08005KT P6SM SCT250
     FM231500 14011KT P6SM BKN120=



000
FTUS43 KLSX 222300
TAFSUS
TAF
KSUS 222320Z 2300/2324 33006KT P6SM SKC
     FM230400 00000KT P6SM SKC
     FM231400 12008KT P6SM BKN120=



000
FTUS43 KLSX 222300
TAFSTL
TAF
KSTL 222320Z 2300/2406 33009KT P6SM SKC
     FM230300 VRB04KT P6SM SCT250
     FM231400 13010KT P6SM BKN120=



000
FTUS43 KLSX 222300
TAFUIN
TAF
KUIN 222320Z 2300/2324 01005KT P6SM SKC
     FM230900 09006KT P6SM BKN120
     FM231500 13011KT P6SM BKN100=



000
FTUS43 KLSX 222000 AAA
TAFSTL
TAF AMD
KSTL 222035Z 2221/2324 32012G18KT P6SM SKC
     FM230100 35007KT P6SM SKC
     FM230500 VRB04KT P6SM SCT250
     FM231400 12008KT P6SM SCT100 BKN250
     FM232100 13011KT P6SM SCT100 BKN250=



000
FTUS43 KLSX 221700
TAFCOU
TAF
KCOU 221739Z 2218/2318 36010KT P6SM SKC
     FM230000 02005KT P6SM SKC
     FM230800 08005KT P6SM SCT250
     FM231500 14011KT P6SM SCT100 BKN250=



000
FTUS43 KLSX 221700
TAFSUS
TAF
KSUS 221739Z 2218/2318 35012G18KT P6SM SKC
     FM230100 VRB04KT P6SM SKC
     FM231400 12007KT P6SM SCT100 BKN250=



000
FTUS43 KLSX 221700
TAFUIN
TAF
KUIN 221739Z 2218/2318 35012G18KT P6SM SKC
     FM230000 01006KT P6SM SKC
     FM230800 08005KT P6SM SCT250
     FM231500 13011KT P6SM BKN100=



000
FTUS43 KLSX 221700
TAFSTL
TAF
KSTL 221739Z 2218/2324 35012G18KT P6SM SKC
     FM230100 01006KT P6SM SKC
     FM230600 VRB04KT P6SM SCT250
     FM231400 12008KT P6SM SCT100 BKN250
     FM232100 13011KT P6SM SCT100 BKN250=



000
FTUS43 KLSX 221500 AAA
TAFSTL
TAF AMD
KSTL 221502Z 2215/2318 35013KT P6SM SKC
     FM230100 04006KT P6SM SCT250
     FM231400 12008KT P6SM SCT250=



000
FTUS43 KLSX 221100
TAFSUS
TAF
KSUS 221120Z 2212/2312 34011KT P6SM SKC
     FM230100 VRB03KT P6SM SCT250=



000
FTUS43 KLSX 221100
TAFSTL
TAF
KSTL 221120Z 2212/2318 35013KT P6SM SKC
     FM230100 04006KT P6SM SCT250
     FM231400 12008KT P6SM SCT250=



000
FTUS43 KLSX 221100
TAFUIN
TAF
KUIN 221120Z 2212/2312 35013KT P6SM SKC
     FM230100 04006KT P6SM SCT250=



000
FTUS43 KLSX 221100
TAFCOU
TAF
KCOU 221120Z 2212/2312 35010KT P6SM SKC
     FM230100 04006KT P6SM SCT250=



000
FTUS43 KLSX 220900 AAB
TAFSTL
TAF AMD
KSTL 220902Z 2209/2312 35013KT P6SM SKC
     FM230100 02006KT P6SM SCT250=



000
FTUS43 KLSX 220900 AAC
TAFSUS
TAF AMD
KSUS 220902Z 2209/2306 34010KT P6SM SKC
     FM230000 VRB04KT P6SM SCT250=



000
FTUS43 KLSX 220700 AAB
TAFSUS
TAF AMD
KSUS 220704Z 2207/2306 35012KT P6SM SKC
     FM230000 VRB04KT P6SM SCT250=



000
FTUS43 KLSX 220700 AAA
TAFSTL
TAF AMD
KSTL 220703Z 2207/2312 31008KT P6SM FEW010 BKN040
     FM220800 35013KT P6SM SKC
     FM230100 02006KT P6SM SCT250=



000
FTUS43 KLSX 220600 AAA
TAFCOU
TAF AMD
KCOU 220644Z 2207/2306 35012KT P6SM SKC
     FM221500 03010KT P6SM SCT250=



000
FTUS43 KLSX 220600 AAA
TAFSUS
TAF AMD
KSUS 220643Z 2207/2306 VRB04KT 4SM BR BKN060
     FM220800 35012KT P6SM SKC
     FM230000 VRB04KT P6SM SCT250=



000
FTUS43 KLSX 220500
TAFSUS
TAF
KSUS 220520Z 2206/2306 VRB04KT 4SM BR BKN060
      TEMPO 2206/2208 1/2SM FG
     FM220800 35012KT P6SM SKC
     FM230000 VRB04KT P6SM SCT250=



000
FTUS43 KLSX 220500
TAFSTL
TAF
KSTL 220520Z 2206/2312 VRB04KT P6SM BKN060
      TEMPO 2206/2208 5SM BR
     FM220800 35013KT P6SM SKC
     FM230100 02006KT P6SM SCT250=



000
FTUS43 KLSX 220500
TAFUIN
TAF
KUIN 220520Z 2206/2306 35012KT P6SM SKC
     FM230000 03005KT P6SM SCT250=



000
FTUS43 KLSX 220500
TAFCOU
TAF
KCOU 220520Z 2206/2306 35011KT P6SM SCT035
      TEMPO 2206/2207 5SM BR
     FM220700 35012KT P6SM SKC
     FM221500 03010KT P6SM SCT250=



000
FTUS43 KLSX 220500 AAD
TAFSUS
TAF AMD
KSUS 220500Z 2205/2224 VRB04KT 6SM BR SCT100
      TEMPO 2205/2208 1/2SM FG BKN005
     FM220800 35012KT P6SM SKC=



000
FTUS43 KLSX 220400 AAC
TAFSUS
TAF AMD
KSUS 220453Z 2205/2224 VRB04KT 6SM BR SCT100
      TEMPO 2206/2208 1/2SM FG
     FM220800 35012KT P6SM SKC=



000
FTUS43 KLSX 220300 AAB
TAFSUS
TAF AMD
KSUS 220331Z 2204/2224 VRB04KT 6SM BR SCT100
      TEMPO 2204/2207 2SM BR
     FM220700 35012KT P6SM SKC=



000
FTUS43 KLSX 220300 AAB
TAFUIN
TAF AMD
KUIN 220307Z 2203/2224 32010KT P6SM BKN040
      TEMPO 2203/2205 BKN030
     FM220500 35012KT P6SM SKC=



000
FTUS43 KLSX 220300 AAB
TAFCOU
TAF AMD
KCOU 220306Z 2203/2224 32010KT P6SM BKN040
     FM220500 35011KT P6SM SKC=



000
FTUS43 KLSX 220300 AAA
TAFSUS
TAF AMD
KSUS 220305Z 2203/2224 33010KT P6SM BKN035
     FM220700 35012KT P6SM SKC=



000
FTUS43 KLSX 220300 AAA
TAFSTL
TAF AMD
KSTL 220304Z 2203/2306 33010KT P6SM BKN035
     FM220700 35013KT P6SM SKC
     FM230100 02006KT P6SM SCT250=



000
FTUS43 KLSX 220000 AAA
TAFUIN
TAF AMD
KUIN 220022Z 2200/2224 30009KT P6SM OVC050
      TEMPO 2201/2202 4SM -SHRA OVC030
     FM220200 32009KT P6SM BKN040
     FM220500 35012KT P6SM SKC=



000
FTUS43 KLSX 220000 AAA
TAFCOU
TAF AMD
KCOU 220021Z 2200/2224 29010KT P6SM OVC050
      TEMPO 2202/2203 2SM -TSRA OVC030CB
     FM220300 32010KT P6SM BKN040
     FM220500 35011KT P6SM SKC=



000
FTUS43 KLSX 212300
TAFUIN
TAF
KUIN 212320Z 2200/2224 30009KT P6SM VCSH OVC050
      TEMPO 2200/2201 3SM -SHRA OVC030CB
     FM220100 32009KT P6SM BKN040
     FM220500 35012KT P6SM SKC=



000
FTUS43 KLSX 212300
TAFCOU
TAF
KCOU 212320Z 2200/2224 27010KT 6SM -SHRA VCTS OVC030CB
      TEMPO 2200/2202 2SM -TSRA OVC025CB
     FM220200 32010KT P6SM BKN040
     FM220500 35011KT P6SM SKC=



000
FTUS43 KLSX 212300
TAFSUS
TAF
KSUS 212320Z 2200/2224 26009KT P6SM VCSH OVC040
      TEMPO 2201/2203 5SM -TSRA SCT020 OVC035CB
     FM220300 31010KT P6SM BKN030
     FM220700 32012KT P6SM SKC
     FM221500 35013KT P6SM SKC=



000
FTUS43 KLSX 212300
TAFSTL
TAF
KSTL 212320Z 2200/2306 27010KT P6SM VCSH OVC040
      TEMPO 2201/2203 5SM -TSRA SCT020 OVC035CB
     FM220300 31010KT P6SM BKN030
     FM220700 32012KT P6SM SKC
     FM221500 35013KT P6SM SKC
     FM230100 02006KT P6SM SCT250=



000
FTUS43 KLSX 212200 AAB
TAFSUS
TAF AMD
KSUS 212230Z 2123/2218 25010KT P6SM VCSH OVC040
      TEMPO 2123/2124 5SM -SHRA OVC030
     FM220000 26009KT 6SM -SHRA VCTS OVC035CB
     FM220300 31010KT P6SM BKN030
     FM220700 32012KT P6SM SKC
     FM221500 35013KT P6SM SKC=



000
FTUS43 KLSX 212200 AAB
TAFSTL
TAF AMD
KSTL 212228Z 2122/2224 25010KT P6SM VCSH OVC040
      TEMPO 2122/2124 5SM -SHRA OVC030
     FM220000 27010KT 6SM -SHRA VCTS SCT020 OVC035CB
     FM220300 31010KT P6SM BKN030
     FM220700 32012KT P6SM SKC
     FM221500 35013KT P6SM SKC=



000
FTUS43 KLSX 212200 AAB
TAFCOU
TAF AMD
KCOU 212215Z 2122/2218 24010KT P6SM VCTS OVC035CB
      TEMPO 2122/2124 2SM TSRA OVC025CB
     FM220000 27010KT 6SM -SHRA VCTS OVC030CB
     FM220200 32010KT P6SM BKN040
     FM220500 33011KT P6SM SKC=



000
FTUS43 KLSX 212200 AAB
TAFUIN
TAF AMD
KUIN 212214Z 2122/2218 29009KT P6SM VCSH OVC050
      TEMPO 2123/2201 3SM SHRA OVC030
     FM220100 32009KT P6SM BKN040
     FM220500 34012KT P6SM SKC=



000
FTUS43 KLSX 212000 AAA
TAFSUS
TAF AMD
KSUS 212037Z 2121/2218 24008KT P6SM VCSH SCT040 OVC080
     FM212200 25010KT P6SM VCTS OVC040CB
      TEMPO 2122/2124 2SM TSRA OVC020CB
     FM220000 26009KT 6SM -SHRA VCTS OVC030CB
      TEMPO 2200/2203 3SM SHRA OVC015
     FM220400 31010KT P6SM BKN020
     FM220700 32012KT P6SM SKC
     FM221500 35013KT P6SM SKC=



000
FTUS43 KLSX 212000 AAA
TAFSTL
TAF AMD
KSTL 212036Z 2121/2224 24008KT P6SM VCSH SCT040 OVC080
     FM212200 25010KT P6SM VCTS OVC040CB
      TEMPO 2122/2124 2SM TSRA OVC020CB
     FM220000 26009KT 6SM -SHRA VCTS OVC030CB
      TEMPO 2200/2203 3SM SHRA OVC015
     FM220400 31010KT P6SM BKN020
     FM220700 32012KT P6SM SKC
     FM221500 35013KT P6SM SKC=



000
FTUS43 KLSX 211900 AAA
TAFCOU
TAF AMD
KCOU 211951Z 2120/2218 23010KT P6SM VCTS OVC035CB
      TEMPO 2121/2123 2SM TSRA OVC015CB
     FM212300 27010KT 6SM -SHRA VCTS OVC030CB
      TEMPO 2123/2202 3SM SHRA OVC015
     FM220200 32010KT P6SM BKN040
     FM220500 33011KT P6SM SKC=



000
FTUS43 KLSX 211900 AAA
TAFUIN
TAF AMD
KUIN 211948Z 2120/2218 26008KT 6SM -SHRA VCTS OVC035CB
      TEMPO 2121/2122 2SM TSRA OVC020CB
     FM212200 27009KT P6SM VCTS OVC030CB
      TEMPO 2122/2201 3SM SHRA OVC015
     FM220100 32009KT P6SM BKN040
     FM220500 34012KT P6SM SKC=



000
FTUS43 KLSX 211700
TAFSUS
TAF
KSUS 211729Z 2118/2218 24010KT P6SM VCSH SCT040 OVC080
     FM212100 25010KT P6SM VCTS OVC040CB
      TEMPO 2122/2124 2SM TSRA OVC020CB
     FM220000 26009KT 6SM -SHRA VCTS OVC030CB
      TEMPO 2200/2203 3SM SHRA OVC015
     FM220400 31010KT P6SM OVC020
     FM220700 32012KT P6SM SKC
     FM221500 35013KT P6SM SKC=



000
FTUS43 KLSX 211700
TAFUIN
TAF
KUIN 211729Z 2118/2218 25009KT 6SM -SHRA VCTS OVC035CB
      TEMPO 2118/2120 2SM TSRA OVC020CB
     FM212100 26009KT P6SM VCTS OVC030CB
      TEMPO 2121/2201 3SM SHRA OVC015
     FM220100 32009KT P6SM BKN040
     FM220500 34012KT P6SM SKC=



000
FTUS43 KLSX 211700
TAFCOU
TAF
KCOU 211729Z 2118/2218 24010KT P6SM VCTS BKN030CB
      TEMPO 2120/2122 2SM TSRA OVC015CB
     FM212200 26010KT 6SM -SHRA VCTS OVC030CB
      TEMPO 2122/2202 3SM SHRA OVC015
     FM220200 32010KT P6SM BKN040
     FM220500 33011KT P6SM SKC=



000
FTUS43 KLSX 211700
TAFSTL
TAF
KSTL 211729Z 2118/2224 24010KT P6SM VCSH SCT040 OVC080
     FM212100 25010KT P6SM VCTS OVC040CB
      TEMPO 2122/2124 2SM TSRA OVC020CB
     FM220000 26009KT 6SM -SHRA VCTS OVC030CB
      TEMPO 2200/2203 3SM SHRA OVC015
     FM220400 31010KT P6SM OVC020
     FM220700 32012KT P6SM SKC
     FM221500 35013KT P6SM SKC=



000
FTUS43 KLSX 211500 AAB
TAFSUS
TAF AMD
KSUS 211525Z 2115/2212 23009KT P6SM VCSH OVC080
      TEMPO 2115/2117 5SM -SHRA
     FM211800 25008KT P6SM VCTS SCT060CB BKN120
      TEMPO 2120/2124 5SM -SHRA BKN050
     FM220400 29008KT P6SM SCT060 BKN100
     FM220600 31008KT P6SM SKC=



000
FTUS43 KLSX 211500 AAA
TAFCOU
TAF AMD
KCOU 211521Z 2115/2212 24008KT P6SM VCSH BKN080
     FM211800 24010KT 5SM -SHRA VCTS SCT040CB OVC080
     FM220200 32008KT P6SM SKC=



000
FTUS43 KLSX 211500 AAB
TAFSTL
TAF AMD
KSTL 211512Z 2115/2218 23009KT P6SM VCSH OVC080
      TEMPO 2115/2117 5SM -SHRA
     FM211800 25008KT P6SM VCTS SCT060CB BKN120
      TEMPO 2120/2124 5SM -SHRA BKN050
     FM220400 29008KT P6SM SCT060 BKN100
     FM220600 32008KT P6SM SKC
     FM221500 35010KT P6SM SKC=



000
FTUS43 KLSX 211200 AAA
TAFSUS
TAF AMD
KSUS 211238Z 2113/2212 23006KT P6SM VCSH FEW060 SCT120
      TEMPO 2114/2116 5SM -SHRA SCT050 BKN120
     FM211800 25008KT 5SM -SHRA VCTS SCT060CB BKN120
     FM220400 29008KT P6SM SCT060 BKN100
     FM220600 31008KT P6SM SKC=



000
FTUS43 KLSX 211200 AAA
TAFSTL
TAF AMD
KSTL 211238Z 2113/2218 24008KT P6SM VCSH FEW060 SCT120
      TEMPO 2114/2116 5SM -SHRA SCT050 BKN120
     FM211800 25008KT P6SM VCTS SCT060CB BKN120
      TEMPO 2120/2124 5SM -SHRA BKN050
     FM220400 29008KT P6SM SCT060 BKN100
     FM220600 32008KT P6SM SKC
     FM221500 35010KT P6SM SKC=



000
FTUS43 KLSX 211100
TAFSTL
TAF
KSTL 211128Z 2112/2218 24008KT P6SM VCSH FEW060 SCT120
      TEMPO 2113/2115 5SM -SHRA SCT050 BKN120
     FM211800 25008KT P6SM VCTS SCT060CB BKN120
      TEMPO 2120/2124 5SM -SHRA BKN050
     FM220400 29008KT P6SM SCT060 BKN100
     FM220600 32008KT P6SM SKC
     FM221500 35010KT P6SM SKC=



000
FTUS43 KLSX 211100
TAFUIN
TAF
KUIN 211128Z 2112/2212 18005KT P6SM SCT070 BKN250
     FM211500 23008KT P6SM VCSH FEW060 SCT120
     FM211800 26008KT 5SM -SHRA VCTS SCT060CB BKN120
     FM220000 32008KT P6SM SKC=



000
FTUS43 KLSX 211100
TAFCOU
TAF
KCOU 211128Z 2112/2212 19006KT P6SM VCSH FEW060 SCT120
     FM211400 24008KT 5SM -SHRA VCTS SCT060CB BKN120
     FM220200 32008KT P6SM SKC=



000
FTUS43 KLSX 211100
TAFSUS
TAF
KSUS 211128Z 2112/2212 23006KT P6SM VCSH FEW060 SCT120
      TEMPO 2113/2115 5SM -SHRA SCT050 BKN120
     FM211800 25008KT 5SM -SHRA VCTS SCT060CB BKN120
     FM220400 29008KT P6SM SCT060 BKN100
     FM220600 31008KT P6SM SKC=



000
FTUS43 KLSX 210900 AAA
TAFCOU
TAF AMD
KCOU 210906Z 2109/2206 18006KT P6SM SCT070 BKN250
     FM211100 19006KT P6SM VCSH FEW060 SCT120
     FM211500 24008KT 5SM -SHRA VCTS SCT060CB BKN120
     FM220000 31008KT P6SM SKC=



000
FTUS43 KLSX 210900 AAA
TAFSTL
TAF AMD
KSTL 210902Z 2109/2212 18006KT P6SM SCT150 BKN250
     FM211200 22008KT P6SM VCSH FEW060 SCT120
     FM211800 24008KT P6SM VCTS SCT060CB BKN120
      TEMPO 2120/2124 5SM -SHRA BKN050
     FM220300 29008KT P6SM SCT060 BKN100
     FM220600 32008KT P6SM SKC=



000
FTUS43 KLSX 210500
TAFSTL
TAF
KSTL 210520Z 2106/2212 16008KT P6SM SCT150 BKN250
     FM211200 22008KT P6SM VCSH FEW060 SCT120
     FM211800 24008KT P6SM VCTS SCT060CB BKN120
      TEMPO 2120/2124 5SM -SHRA BKN050
     FM220300 29008KT P6SM SCT060 BKN100
     FM220600 32008KT P6SM SKC=



000
FTUS43 KLSX 210500
TAFSUS
TAF
KSUS 210520Z 2106/2206 16005KT P6SM SCT150 BKN250
     FM211200 22006KT P6SM VCSH FEW060 SCT120
     FM211800 25008KT 5SM -SHRA VCTS SCT060CB BKN120
     FM220300 29008KT P6SM SCT060 BKN100=



000
FTUS43 KLSX 210500
TAFCOU
TAF
KCOU 210520Z 2106/2206 18006KT P6SM SCT150 BKN250
     FM210900 19006KT P6SM VCSH FEW060 SCT120
     FM211500 24008KT 5SM -SHRA VCTS SCT060CB BKN120
     FM220000 31008KT P6SM SKC=



000
FTUS43 KLSX 210500
TAFUIN
TAF
KUIN 210520Z 2106/2206 15006KT P6SM SCT150 BKN250
     FM211200 23008KT P6SM VCSH FEW060 SCT120
     FM211800 26008KT 5SM -SHRA VCTS SCT060CB BKN120
     FM220000 31008KT P6SM SKC=



000
FTUS43 KLSX 210300 AAA
TAFSTL
TAF AMD
KSTL 210304Z 2103/2206 16008KT P6SM FEW150 BKN250
     FM211200 22008KT P6SM VCSH FEW060 SCT150
     FM211800 24008KT P6SM VCTS SCT060CB BKN120
      TEMPO 2120/2124 5SM -SHRA BKN050
     FM220000 29008KT P6SM SCT060 BKN120=



    US Dept of Commerce
    National Oceanic and Atmospheric Administration
    National Weather Service
    1325 East West Highway
    Silver Spring, MD 20910
    Page Author: NWS Internet Services Team
Disclaimer
Information Quality
Credits
Glossary
Privacy Policy
Freedom of Information Act (FOIA)
About Us
Career Opportunities